Estevan, Canada
Current Conditions -  °F | °C
As of 9:00 AM on Thursday 30 Oct 2014 (Local Time) from CYEN Reporting Station
Overcast Overcast  
Wind Chill: 26°   Ceiling: 1500
Heat Index: 34°   Visibility: 15mi
Dew Point: 30°   Wind: 10mph
Humidity: 87%   Direction: 10°N
Pressure: 30.37"   Gusts: NA
Location:  49.14°N, 102.99°W
Report Text: CYEN 301500Z 01009KT 15SM OVC015 01/M01 A3037 RMK SC8 PRESRRSLP315
Loading
Personal Weather Stations






























Interactive Weather Map
Tropical Storm Tracking
New forecast layout! Learn more

10-Day Weather Forecast

Advertisements
Track Severe Weather on mobile